EmailTwitter


Surface observations / France / LFBO (07630)

Regions: Quebec | Canada | USA | Europe | France | UK | Elsewhere
Station
Display
Info & Location for LFBO (07630) | Help decoding METAR

Weather Conditions observed on 2018/05/20 at 23:30 UTC at TOULOUSE/BLAGNAC, FR (LFBO)

Temperature: 16.0 Celsius.

Dewpoint: 13.0 Celsius.

Relative Humidity: 82%

Winds: South at 4 km/h or 2 knots.

Mean Sea level Pressure: 101.30 kilopascals.

Coded METAR:

LFBO 202330Z AUTO 19002KT CAVOK 16/13 Q1013 NOSIG=